createdAt,value
2022-08-04T00:02:28.493Z,84.40
2022-08-04T00:07:44.196Z,83.86
2022-08-04T00:12:53.251Z,84.44
2022-08-04T00:18:01.179Z,86.00
2022-08-04T00:23:04.881Z,84.77
2022-08-04T00:28:10.021Z,85.36
2022-08-04T00:33:14.108Z,85.47
2022-08-04T00:38:18.582Z,88.23
2022-08-04T00:43:32.480Z,90.81
2022-08-04T00:48:49.071Z,90.32
2022-08-04T00:54:07.452Z,90.44
2022-08-04T00:59:20.102Z,90.48
2022-08-04T01:04:37.647Z,90.01
2022-08-04T01:09:51.015Z,91.19
2022-08-04T01:15:07.835Z,89.78
2022-08-04T01:20:11.924Z,91.49
2022-08-04T01:25:39.190Z,91.27
2022-08-04T01:30:50.334Z,90.00
2022-08-04T01:35:56.771Z,89.03
2022-08-04T01:41:03.960Z,88.64
2022-08-04T01:46:12.990Z,90.99
2022-08-04T01:51:16.207Z,90.90
2022-08-04T01:56:22.309Z,89.84
2022-08-04T02:01:26.960Z,89.46
2022-08-04T02:06:38.078Z,89.10
2022-08-04T02:11:42.659Z,90.71
2022-08-04T02:16:52.517Z,89.90
2022-08-04T02:21:58.670Z,90.28
2022-08-04T02:27:04.512Z,90.17
2022-08-04T02:32:16.536Z,90.96
2022-08-04T02:37:22.040Z,92.26
2022-08-04T02:42:25.230Z,90.66
2022-08-04T02:48:30.557Z,91.42
2022-08-04T02:52:54.945Z,90.79
2022-08-04T02:58:01.203Z,93.13
2022-08-04T03:03:18.243Z,91.79
2022-08-04T03:08:54.133Z,93.46
2022-08-04T03:14:14.894Z,90.87
2022-08-04T03:20:10.500Z,93.29
2022-08-04T03:25:57.067Z,92.64
2022-08-04T03:31:26.110Z,92.39
2022-08-04T03:36:56.348Z,92.39
2022-08-04T03:42:23.009Z,92.67
2022-08-04T03:47:48.786Z,92.40
2022-08-04T03:53:17.273Z,93.09
2022-08-04T03:58:48.572Z,94.33
2022-08-04T04:04:25.335Z,96.04
2022-08-04T04:10:05.931Z,100.00
2022-08-04T04:15:20.747Z,100.00
2022-08-04T04:20:57.448Z,100.00
2022-08-04T04:26:33.552Z,100.00
2022-08-04T04:31:54.587Z,99.22
2022-08-04T04:37:28.023Z,99.97
2022-08-04T04:42:45.286Z,97.23
2022-08-04T04:48:08.135Z,96.97
2022-08-04T04:53:22.209Z,96.39
2022-08-04T04:58:28.223Z,96.60
2022-08-04T05:03:55.177Z,95.70
2022-08-04T05:09:13.767Z,96.10
2022-08-04T05:14:34.683Z,96.32
2022-08-04T05:19:55.087Z,95.65
2022-08-04T05:25:05.851Z,96.50
2022-08-04T05:30:12.970Z,95.70
2022-08-04T05:35:56.593Z,94.43
2022-08-04T05:40:55.752Z,93.22
2022-08-04T05:46:01.258Z,93.31
2022-08-04T05:51:05.517Z,91.40
2022-08-04T05:56:09.552Z,90.90
2022-08-04T06:01:15.962Z,90.97
2022-08-04T06:06:20.778Z,90.56
2022-08-04T06:11:25.181Z,89.63
2022-08-04T06:16:35.951Z,91.27
2022-08-04T06:21:42.665Z,91.88
2022-08-04T06:26:49.048Z,91.37
2022-08-04T06:32:31.526Z,91.21
2022-08-04T06:37:41.967Z,92.10
2022-08-04T06:42:48.172Z,92.67
2022-08-04T06:47:54.619Z,91.41
2022-08-04T06:52:57.919Z,92.38
2022-08-04T06:58:03.274Z,92.51
2022-08-04T07:03:08.662Z,92.85
2022-08-04T07:08:12.230Z,93.11
2022-08-04T07:13:16.011Z,94.13
2022-08-04T07:18:20.615Z,94.65
2022-08-04T07:23:26.093Z,94.49
2022-08-04T07:28:30.927Z,94.00
2022-08-04T07:33:35.554Z,94.81
2022-08-04T07:38:51.278Z,94.13
2022-08-04T07:43:55.893Z,93.25
2022-08-04T07:49:01.190Z,95.09
2022-08-04T07:54:05.865Z,94.53
2022-08-04T07:59:09.635Z,93.49
2022-08-04T08:04:15.685Z,93.28
2022-08-04T08:09:21.262Z,91.67
2022-08-04T08:14:24.615Z,89.42
2022-08-04T08:19:29.984Z,89.52
2022-08-04T08:24:36.959Z,88.36
2022-08-04T08:29:41.280Z,86.07
2022-08-04T08:34:46.348Z,83.72
2022-08-04T08:39:58.198Z,80.01
2022-08-04T08:45:52.931Z,77.63
2022-08-04T08:51:22.258Z,76.92
2022-08-04T08:56:36.225Z,74.40
2022-08-04T09:01:53.122Z,72.28
2022-08-04T09:07:08.435Z,74.24
2022-08-04T09:12:25.593Z,73.53
2022-08-04T09:17:34.567Z,73.75
2022-08-04T09:22:46.290Z,70.36
2022-08-04T09:27:54.844Z,70.51
2022-08-04T09:33:16.313Z,69.75
2022-08-04T09:38:28.895Z,60.83
2022-08-04T09:43:59.319Z,62.09
2022-08-04T09:49:14.853Z,63.52
2022-08-04T09:54:30.996Z,63.14
2022-08-04T09:59:44.506Z,63.46
2022-08-04T10:04:50.375Z,64.05
2022-08-04T10:10:13.799Z,64.25
2022-08-04T10:15:20.994Z,66.35
2022-08-04T10:20:51.846Z,67.15
2022-08-04T10:26:12.436Z,67.52
2022-08-04T10:31:23.966Z,68.01
2022-08-04T10:36:33.034Z,69.33
2022-08-04T10:41:44.047Z,68.85
2022-08-04T10:46:52.403Z,70.93
2022-08-04T10:52:03.204Z,70.58
2022-08-04T10:57:12.172Z,65.35
2022-08-04T11:02:28.356Z,66.30
2022-08-04T11:07:33.676Z,65.75
2022-08-04T11:12:41.529Z,65.44
2022-08-04T11:17:48.561Z,63.74
2022-08-04T11:22:59.624Z,63.21
2022-08-04T11:28:10.523Z,61.98
2022-08-04T11:33:22.404Z,60.44
2022-08-04T11:38:33.809Z,59.93
2022-08-04T11:44:02.467Z,61.64
2022-08-04T11:49:11.939Z,59.79
2022-08-04T11:54:16.666Z,60.63
2022-08-04T11:59:24.344Z,56.94
2022-08-04T12:04:38.888Z,57.25
2022-08-04T12:09:50.385Z,56.81
2022-08-04T12:15:00.955Z,55.83
2022-08-04T12:20:32.230Z,54.05
2022-08-04T12:25:34.397Z,58.86
2022-08-04T12:31:00.854Z,52.63
2022-08-04T12:36:20.782Z,54.22
2022-08-04T12:41:28.855Z,51.80
2022-08-04T12:46:35.061Z,50.40
2022-08-04T12:52:08.066Z,53.66
2022-08-04T12:57:07.040Z,52.43
2022-08-04T13:02:19.702Z,52.36
2022-08-04T13:07:25.992Z,50.60
2022-08-04T13:12:32.399Z,50.71
2022-08-04T13:17:57.314Z,49.32
2022-08-04T13:23:08.909Z,51.52
2022-08-04T13:28:16.635Z,49.98
2022-08-04T13:33:23.537Z,50.83
2022-08-04T13:38:28.153Z,51.59
2022-08-04T13:44:16.043Z,48.70
2022-08-04T13:49:31.215Z,49.53
2022-08-04T13:54:25.503Z,50.57
2022-08-04T13:59:34.744Z,49.85
2022-08-04T14:04:43.331Z,48.92
2022-08-04T14:10:03.320Z,49.83
2022-08-04T14:15:08.102Z,49.73
2022-08-04T14:20:12.452Z,48.93
2022-08-04T14:25:17.978Z,48.31
2022-08-04T14:30:29.396Z,48.12
2022-08-04T14:35:38.382Z,49.81
2022-08-04T14:41:00.698Z,46.87
2022-08-04T14:46:06.478Z,47.29
2022-08-04T14:51:16.104Z,47.11
2022-08-04T14:56:37.789Z,47.60
2022-08-04T15:01:44.301Z,49.07
2022-08-04T15:06:48.976Z,48.74
2022-08-04T15:11:51.966Z,49.37
2022-08-04T15:16:55.146Z,49.72
2022-08-04T15:22:00.648Z,50.57
2022-08-04T15:27:04.495Z,50.33
2022-08-04T15:32:09.476Z,50.40
2022-08-04T15:37:19.089Z,50.40
2022-08-04T15:42:32.701Z,49.75
2022-08-04T15:47:35.655Z,48.75
2022-08-04T15:53:12.903Z,49.68
2022-08-04T15:58:17.639Z,50.09
2022-08-04T16:04:00.610Z,50.51
2022-08-04T16:09:06.294Z,49.51
2022-08-04T16:14:10.530Z,50.59
2022-08-04T16:19:24.240Z,50.25
2022-08-04T16:24:36.341Z,50.49
2022-08-04T16:29:41.086Z,51.20
2022-08-04T16:34:55.085Z,51.55
2022-08-04T16:40:38.168Z,49.88
2022-08-04T16:45:54.077Z,45.74
2022-08-04T16:51:05.293Z,45.25
2022-08-04T16:56:14.458Z,47.47
2022-08-04T17:01:28.355Z,49.35
2022-08-04T17:06:38.709Z,50.86
2022-08-04T17:11:44.790Z,52.07
2022-08-04T17:16:47.805Z,53.59
2022-08-04T17:21:51.057Z,53.01
2022-08-04T17:26:55.531Z,52.95
2022-08-04T17:31:58.696Z,52.03
2022-08-04T17:37:38.259Z,52.38
2022-08-04T17:42:34.378Z,52.17
2022-08-04T17:47:50.360Z,52.74
2022-08-04T17:53:01.695Z,52.13
2022-08-04T17:58:20.834Z,53.73
2022-08-04T18:03:25.588Z,52.99
2022-08-04T18:08:37.683Z,53.44
2022-08-04T18:13:57.096Z,53.99
2022-08-04T18:19:12.144Z,54.88
2022-08-04T18:24:15.560Z,55.49
2022-08-04T18:29:31.060Z,56.22
2022-08-04T18:34:35.064Z,56.83
2022-08-04T18:40:17.391Z,57.50
2022-08-04T18:45:09.854Z,58.02
2022-08-04T18:50:59.424Z,58.33
2022-08-04T18:55:56.612Z,59.48
2022-08-04T19:01:01.320Z,60.60
2022-08-04T19:06:07.477Z,61.34
2022-08-04T19:11:38.688Z,61.40
2022-08-04T19:16:36.944Z,61.85
2022-08-04T19:21:59.421Z,62.67
2022-08-04T19:27:06.406Z,63.25
2022-08-04T19:32:15.788Z,64.31
2022-08-04T19:38:01.010Z,65.02
2022-08-04T19:42:43.668Z,65.42
2022-08-04T19:48:16.010Z,66.43
2022-08-04T19:53:18.831Z,66.94
2022-08-04T20:04:08.438Z,70.42
2022-08-04T20:09:25.478Z,71.23
2022-08-04T20:14:32.737Z,72.45
2022-08-04T20:19:40.517Z,73.87
2022-08-04T20:24:53.349Z,73.14
2022-08-04T20:30:10.604Z,74.16
2022-08-04T20:35:25.854Z,75.46
2022-08-04T20:40:30.610Z,75.08
2022-08-04T20:45:57.247Z,75.90
2022-08-04T20:51:00.339Z,76.58
2022-08-04T20:56:03.376Z,77.97
2022-08-04T21:01:09.791Z,78.55
2022-08-04T21:06:15.733Z,79.01
2022-08-04T21:11:18.912Z,78.49
2022-08-04T21:16:26.111Z,78.50
2022-08-04T21:21:46.502Z,79.54
2022-08-04T21:26:58.043Z,79.34
2022-08-04T21:32:01.319Z,80.67
2022-08-04T21:37:05.701Z,80.40
2022-08-04T21:42:42.637Z,80.23
2022-08-04T21:47:46.208Z,80.86
2022-08-04T21:52:53.581Z,82.06
2022-08-04T21:57:58.630Z,82.15
2022-08-04T22:03:03.235Z,82.79
2022-08-04T22:08:07.881Z,83.41
2022-08-04T22:13:23.158Z,83.05
2022-08-04T22:18:46.054Z,83.42
2022-08-04T22:23:51.609Z,84.79
2022-08-04T22:28:56.114Z,84.79
2022-08-04T22:33:59.107Z,84.54
2022-08-04T22:39:07.516Z,86.23
2022-08-04T22:44:15.149Z,86.40
2022-08-04T22:49:19.095Z,86.95
2022-08-04T22:54:31.846Z,86.00
2022-08-04T22:59:36.325Z,85.55
2022-08-04T23:04:43.197Z,85.45
2022-08-04T23:09:51.580Z,84.63
2022-08-04T23:14:55.256Z,85.34
2022-08-04T23:19:59.939Z,85.80
2022-08-04T23:25:05.019Z,86.56
2022-08-04T23:30:09.170Z,86.28
2022-08-04T23:35:12.122Z,86.56
2022-08-04T23:40:34.069Z,86.66
2022-08-04T23:46:06.386Z,86.26
2022-08-04T23:51:07.635Z,86.49
2022-08-04T23:56:19.718Z,86.36
